CPX262 Details

Departure: General Edward Lawrence Logan International Airport (KBOS)
Arrival: Kansas City International Airport (KMCI)
Route: HYLND5 HYLND CAM Q822 GONZZ Q29 DORET DJB J60 JOT J26 IRK BQS6
Notes: METROAIR CARGO SUPPORT


Current Weather Information
KBOS 232329Z 21014KT 10SM BKN016 BKN050 OVC100 17/12 A2987 RMK AO2 PRESFR T01720122
KMCI 232253Z 07008KT 10SM OVC026 23/16 A3004 RMK AO2 SLP165 T02280156